Time;durP1;ratioP1;P1;durP2;ratioP2;P2;SDS_P1;SDS_P2;PMS_P1;PMS_P2;Temp;Humidity;BMP_temperature;BMP_pressure;BME280_temperature;BME280_humidity;BME280_pressure;Samples;Min_cycle;Max_cycle;Signal;HPM_P1;HPM_P2
2023/09/20 00:01:59;;;;;;;4.70;1.60;;;;;;;20.37;54.94;99100.16;4952559;28;20536;-80
2023/09/20 00:04:26;;;;;;;7.55;2.20;;;;;;;20.38;54.89;99104.53;4951960;29;20106;-80
2023/09/20 00:06:53;;;;;;;5.40;1.85;;;;;;;20.37;54.77;99102.84;4952762;29;20055;-81
2023/09/20 00:09:19;;;;;;;4.78;1.67;;;;;;;20.39;54.61;99111.53;4951273;29;20555;-82
2023/09/20 00:11:46;;;;;;;9.15;2.13;;;;;;;20.39;55.24;99108.84;4953305;28;20061;-80
2023/09/20 00:14:13;;;;;;;7.93;1.98;;;;;;;20.39;54.77;99114.19;4955770;29;20066;-81
2023/09/20 00:16:40;;;;;;;8.52;2.45;;;;;;;20.40;54.70;99101.66;4956197;29;20055;-81
2023/09/20 00:19:07;;;;;;;4.57;1.88;;;;;;;20.40;54.85;99099.84;4956729;28;20043;-80
2023/09/20 00:21:34;;;;;;;4.95;2.10;;;;;;;20.41;54.98;99103.34;4955062;29;20114;-82
2023/09/20 00:24:04;;;;;;;5.80;1.70;;;;;;;20.41;54.73;99101.50;4956001;28;20130;-81
2023/09/20 00:26:33;;;;;;;6.03;2.28;;;;;;;20.42;54.99;99116.53;4956359;29;20055;-82
2023/09/20 00:29:07;;;;;;;7.32;2.22;;;;;;;20.41;54.84;99101.50;4956181;29;20157;-83
2023/09/20 00:31:34;;;;;;;9.35;2.45;;;;;;;20.43;54.61;99117.38;4956031;29;20710;-81
2023/09/20 00:34:04;;;;;;;6.63;2.40;;;;;;;20.43;54.85;99112.03;4954395;29;20043;-81
2023/09/20 00:36:31;;;;;;;5.20;1.90;;;;;;;20.42;54.87;99111.16;4956119;29;20062;-81
2023/09/20 00:38:59;;;;;;;7.95;2.30;;;;;;;20.43;54.88;99107.53;4956213;29;20143;-81
2023/09/20 00:41:26;;;;;;;6.70;2.22;;;;;;;20.42;55.02;99111.16;4956033;29;20484;-81
2023/09/20 00:43:54;;;;;;;7.78;2.70;;;;;;;20.44;54.79;99111.84;4955417;29;20062;-81
2023/09/20 00:46:21;;;;;;;6.13;2.30;;;;;;;20.43;54.89;99107.53;4936808;29;20742;-80
2023/09/20 00:48:50;;;;;;;4.68;2.08;;;;;;;20.43;54.98;99115.53;4936704;29;20563;-80
2023/09/20 00:51:21;;;;;;;9.57;2.50;;;;;;;20.41;54.75;99114.84;4936649;29;20059;-81
2023/09/20 00:53:54;;;;;;;5.20;2.20;;;;;;;20.41;54.95;99117.53;4955281;28;20553;-79
2023/09/20 00:56:22;;;;;;;4.63;2.20;;;;;;;20.44;54.89;99113.69;4956000;29;20058;-81
2023/09/20 00:58:52;;;;;;;8.68;2.30;;;;;;;20.44;55.01;99122.56;4955690;29;20146;-80
2023/09/20 01:01:20;;;;;;;3.38;1.67;;;;;;;20.44;55.13;99127.91;4954148;29;20051;-80
2023/09/20 01:03:47;;;;;;;6.75;1.98;;;;;;;20.44;54.85;99132.41;4955534;29;20051;-82
2023/09/20 01:06:19;;;;;;;6.85;1.95;;;;;;;20.44;55.01;99117.19;4955608;29;20146;-80
2023/09/20 01:08:46;;;;;;;4.13;2.05;;;;;;;20.44;55.04;99121.69;4955637;29;20135;-80
2023/09/20 01:11:15;;;;;;;10.27;2.47;;;;;;;20.45;54.85;99126.06;4955320;29;20106;-80
2023/09/20 01:13:43;;;;;;;7.55;2.25;;;;;;;20.46;54.97;99121.53;4955435;29;20048;-82
2023/09/20 01:16:10;;;;;;;10.00;2.13;;;;;;;20.46;54.83;99126.88;4954406;29;20133;-80
2023/09/20 01:18:36;;;;;;;9.40;2.33;;;;;;;20.46;54.97;99129.56;4954394;29;20051;-81
2023/09/20 01:21:05;;;;;;;7.30;2.60;;;;;;;20.44;54.94;99129.72;4955269;28;20054;-81
2023/09/20 01:23:32;;;;;;;6.85;2.40;;;;;;;20.44;55.02;99121.69;4954855;28;20469;-82
2023/09/20 01:26:00;;;;;;;5.70;1.95;;;;;;;20.45;55.05;99123.41;4955666;29;20062;-81
2023/09/20 01:28:28;;;;;;;5.82;2.15;;;;;;;20.44;55.20;99122.56;4955359;29;20139;-80
2023/09/20 01:30:54;;;;;;;6.88;2.35;;;;;;;20.43;54.86;99120.88;4953899;29;20051;-81
2023/09/20 01:33:21;;;;;;;10.40;2.50;;;;;;;20.42;55.32;99116.53;4954901;29;20055;-80
2023/09/20 01:35:48;;;;;;;7.80;2.83;;;;;;;20.42;54.86;99124.53;4955045;29;20055;-82
2023/09/20 01:38:14;;;;;;;7.05;2.20;;;;;;;20.43;54.91;99125.38;4955011;29;20059;-81
2023/09/20 01:40:41;;;;;;;8.13;2.40;;;;;;;20.41;54.95;99119.38;4954816;29;20397;-80
2023/09/20 01:43:08;;;;;;;6.75;2.70;;;;;;;20.40;55.07;99118.53;4954472;29;20129;-80
2023/09/20 01:45:36;;;;;;;5.22;2.30;;;;;;;20.40;55.03;99113.19;4953836;29;20162;-82
2023/09/20 01:48:09;;;;;;;5.47;2.05;;;;;;;20.40;55.14;99102.50;4953572;29;20090;-81
2023/09/20 01:50:36;;;;;;;6.95;2.15;;;;;;;20.39;54.93;99100.84;4954819;29;20047;-80
2023/09/20 01:53:08;;;;;;;5.47;2.60;;;;;;;20.40;55.22;99107.84;4954373;28;20492;-80
2023/09/20 01:55:37;;;;;;;5.40;2.13;;;;;;;20.39;55.17;99100.84;4954761;29;20051;-82
2023/09/20 01:58:06;;;;;;;7.72;2.40;;;;;;;20.38;55.21;99099.19;4954735;29;20055;-82
2023/09/20 02:00:39;;;;;;;6.43;2.25;;;;;;;20.38;54.95;99101.84;4954613;28;20110;-80
2023/09/20 02:03:16;;;;;;;8.32;2.70;;;;;;;20.36;55.01;99095.81;4952776;29;20047;-80
2023/09/20 02:05:46;;;;;;;5.35;2.88;;;;;;;20.37;55.39;99100.16;4953351;29;20058;-80
2023/09/20 02:08:12;;;;;;;5.53;2.00;;;;;;;20.37;55.05;99086.78;4954113;29;20098;-81
2023/09/20 02:10:39;;;;;;;4.80;2.33;;;;;;;20.36;55.25;99095.81;4954478;29;20051;-80
2023/09/20 02:13:07;;;;;;;5.82;1.92;;;;;;;20.36;55.42;99101.16;4953672;29;20560;-81
2023/09/20 02:15:35;;;;;;;5.32;2.40;;;;;;;20.35;55.27;99102.19;4954295;28;20409;-80
2023/09/20 02:18:05;;;;;;;5.20;2.30;;;;;;;20.34;55.31;99108.53;4954280;29;20094;-81
2023/09/20 02:20:39;;;;;;;6.55;2.17;;;;;;;20.34;55.39;99092.50;4953055;29;20452;-81
2023/09/20 02:23:12;;;;;;;7.38;2.85;;;;;;;20.34;55.40;99094.31;4953455;29;20146;-83
2023/09/20 02:25:40;;;;;;;5.72;2.35;;;;;;;20.33;55.53;99088.13;4953159;29;20087;-80
2023/09/20 02:28:07;;;;;;;5.63;2.35;;;;;;;20.32;55.44;99097.16;4953892;29;20134;-81
2023/09/20 02:30:37;;;;;;;6.43;2.15;;;;;;;20.31;55.73;99101.66;4954034;29;20059;-80
2023/09/20 02:33:06;;;;;;;5.47;2.28;;;;;;;20.31;55.38;99098.16;4953160;29;20047;-81
2023/09/20 02:35:34;;;;;;;5.68;2.17;;;;;;;20.30;55.49;99102.66;4952258;28;20051;-80
2023/09/20 02:38:04;;;;;;;6.55;2.17;;;;;;;20.29;55.52;99097.47;4953924;29;20102;-80
2023/09/20 02:40:33;;;;;;;10.18;3.00;;;;;;;20.30;55.71;99096.50;4953884;29;20192;-80
2023/09/20 02:42:59;;;;;;;4.68;2.38;;;;;;;20.27;55.57;99089.66;4953249;29;20055;-80
2023/09/20 02:45:30;;;;;;;6.28;2.53;;;;;;;20.27;55.67;99086.13;4952359;29;20425;-80
2023/09/20 02:48:03;;;;;;;4.63;2.05;;;;;;;20.25;55.40;99090.81;4953843;29;20134;-81
2023/09/20 02:50:31;;;;;;;6.72;2.28;;;;;;;20.23;55.58;99084.81;4953767;29;20512;-82
2023/09/20 02:52:58;;;;;;;6.47;2.33;;;;;;;20.22;55.57;99083.13;4952966;29;20043;-82
2023/09/20 02:55:27;;;;;;;7.72;2.38;;;;;;;20.17;55.43;99081.81;4953287;29;20059;-81
2023/09/20 02:57:54;;;;;;;6.85;2.40;;;;;;;20.14;55.38;99076.78;4953764;29;20051;-81
2023/09/20 03:00:33;;;;;;;6.47;2.15;;;;;;;20.10;55.37;99077.28;4953515;28;20055;-80
2023/09/20 03:03:01;;;;;;;7.15;2.25;;;;;;;20.05;55.77;99070.63;4952956;29;20055;-82
2023/09/20 03:05:34;;;;;;;8.27;2.53;;;;;;;19.99;55.99;99071.25;4953193;28;20087;-82
2023/09/20 03:08:01;;;;;;;6.40;2.20;;;;;;;19.97;55.85;99081.25;4953613;29;20139;-79
2023/09/20 03:10:28;;;;;;;5.35;2.33;;;;;;;19.94;55.91;99065.56;4953203;29;20512;-81
2023/09/20 03:12:57;;;;;;;6.05;2.13;;;;;;;19.89;56.14;99054.53;4953153;29;20090;-80
2023/09/20 03:15:27;;;;;;;5.15;1.90;;;;;;;19.84;56.23;99068.38;4952784;29;20059;-82
2023/09/20 03:18:05;;;;;;;5.65;2.20;;;;;;;19.77;56.51;99065.53;4951827;29;20502;-81
2023/09/20 03:20:32;;;;;;;8.50;2.42;;;;;;;19.78;56.30;99064.53;4953372;28;20051;-80
2023/09/20 03:23:03;;;;;;;7.57;2.67;;;;;;;19.74;56.52;99054.34;4952899;29;20162;-80
2023/09/20 03:25:35;;;;;;;6.72;2.30;;;;;;;19.71;56.36;99060.03;4952622;29;20047;-81
2023/09/20 03:28:03;;;;;;;6.13;2.35;;;;;;;19.68;56.39;99055.84;4953211;28;20081;-80
2023/09/20 03:30:31;;;;;;;5.43;1.98;;;;;;;19.65;56.51;99049.00;4952802;29;20122;-82
2023/09/20 03:32:58;;;;;;;8.38;2.50;;;;;;;19.61;56.73;99047.66;4952903;29;20408;-80
2023/09/20 03:35:25;;;;;;;3.90;2.20;;;;;;;19.59;56.95;99052.31;4952557;29;20113;-80
2023/09/20 03:37:52;;;;;;;2.80;2.00;;;;;;;19.57;56.55;99051.66;4952908;29;20058;-81
2023/09/20 03:40:20;;;;;;;6.25;2.30;;;;;;;19.55;57.14;99047.47;4952889;29;20059;-80
2023/09/20 03:42:48;;;;;;;8.70;2.42;;;;;;;19.52;57.10;99051.31;4952537;29;20493;-81
2023/09/20 03:45:16;;;;;;;8.23;2.47;;;;;;;19.50;56.92;99058.63;4951166;29;20492;-80
2023/09/20 03:47:45;;;;;;;5.95;2.30;;;;;;;19.46;57.03;99047.47;4951926;29;20055;-81
2023/09/20 03:50:12;;;;;;;7.45;2.30;;;;;;;19.47;57.17;99050.97;4951509;29;20110;-81
2023/09/20 03:52:40;;;;;;;9.05;2.40;;;;;;;19.43;57.19;99052.28;4951489;29;20055;-82
2023/09/20 03:55:12;;;;;;;6.65;1.90;;;;;;;19.41;57.32;99055.13;4952544;29;20055;-80
2023/09/20 03:57:39;;;;;;;10.65;2.35;;;;;;;19.39;57.50;99046.44;4952424;29;20090;-80
2023/09/20 04:00:07;;;;;;;7.75;2.60;;;;;;;19.38;57.32;99053.63;4952631;29;20150;-80
2023/09/20 04:02:37;;;;;;;4.82;2.33;;;;;;;19.38;57.66;99050.09;4951552;29;20055;-81
2023/09/20 04:05:10;;;;;;;6.70;2.47;;;;;;;19.36;57.51;99042.25;4952236;29;20051;-80
2023/09/20 04:07:39;;;;;;;6.82;2.25;;;;;;;19.35;57.73;99040.59;4952547;29;20083;-81
2023/09/20 04:10:07;;;;;;;7.32;2.63;;;;;;;19.34;57.83;99035.41;4952354;29;20087;-80
2023/09/20 04:12:35;;;;;;;6.50;2.00;;;;;;;19.33;57.91;99033.75;4951431;29;20096;-82
2023/09/20 04:15:04;;;;;;;7.72;2.30;;;;;;;19.32;57.88;99037.41;4952344;29;20472;-82
2023/09/20 04:17:35;;;;;;;4.80;2.00;;;;;;;19.31;57.91;99031.25;4952269;28;20681;-81
2023/09/20 04:20:06;;;;;;;3.90;1.92;;;;;;;19.29;57.78;99033.25;4952634;29;20057;-80
2023/09/20 04:22:34;;;;;;;6.53;2.53;;;;;;;19.27;57.75;99021.88;4952484;29;20047;-82
2023/09/20 04:25:01;;;;;;;6.93;2.00;;;;;;;19.25;58.11;99023.91;4952380;28;20091;-80
2023/09/20 04:27:31;;;;;;;6.60;2.58;;;;;;;19.23;57.96;99026.72;4952191;29;20484;-81
2023/09/20 04:29:58;;;;;;;7.22;2.28;;;;;;;19.20;58.23;99026.19;4951296;29;20105;-82
2023/09/20 04:32:25;;;;;;;9.15;2.75;;;;;;;19.20;58.01;99031.53;4952423;29;20063;-81
2023/09/20 04:34:51;;;;;;;4.88;2.17;;;;;;;19.17;57.98;99029.19;4952245;29;20058;-81
2023/09/20 04:37:19;;;;;;;6.40;2.30;;;;;;;19.16;58.31;99024.84;4950947;29;20610;-80
2023/09/20 04:39:46;;;;;;;4.53;2.40;;;;;;;19.13;58.17;99032.19;4951389;29;20048;-82
2023/09/20 04:42:13;;;;;;;5.40;2.33;;;;;;;19.12;58.49;99027.00;4952481;29;20145;-81
2023/09/20 04:44:41;;;;;;;8.30;2.03;;;;;;;19.09;58.56;99024.66;4952211;29;20146;-82
2023/09/20 04:47:10;;;;;;;7.20;2.40;;;;;;;19.08;58.28;99025.66;4951951;28;20047;-81
2023/09/20 04:49:40;;;;;;;6.25;2.30;;;;;;;19.03;58.79;99023.47;4949817;29;20390;-80
2023/09/20 04:52:10;;;;;;;11.48;2.53;;;;;;;19.03;58.64;99023.47;4952247;29;20574;-81
2023/09/20 04:54:37;;;;;;;6.50;2.33;;;;;;;19.01;58.49;99030.75;4951028;29;20539;-81
2023/09/20 04:57:07;;;;;;;6.25;2.20;;;;;;;19.01;58.55;99028.09;4952217;28;20552;-80
2023/09/20 04:59:33;;;;;;;8.05;2.85;;;;;;;18.98;58.91;99023.06;4954023;29;20091;-80
2023/09/20 05:02:02;;;;;;;6.07;2.00;;;;;;;18.96;59.00;99033.09;4955711;29;20162;-81
2023/09/20 05:04:29;;;;;;;5.22;2.42;;;;;;;18.95;nan;99031.41;4955529;29;20055;-82
2023/09/20 05:06:56;;;;;;;5.50;2.28;;;;;;;18.92;59.04;99031.72;4955787;29;20055;-80
2023/09/20 05:09:22;;;;;;;5.70;2.25;;;;;;;18.89;59.06;99024.88;4954282;29;20500;-81
2023/09/20 05:11:49;;;;;;;7.20;2.58;;;;;;;18.86;58.95;99023.38;4955278;29;20043;-81
2023/09/20 05:14:17;;;;;;;7.72;2.65;;;;;;;18.83;59.22;99021.03;4955495;28;20117;-81
2023/09/20 05:16:44;;;;;;;7.60;2.35;;;;;;;18.81;59.36;99019.53;4955544;29;20066;-81
2023/09/20 05:19:11;;;;;;;7.03;2.40;;;;;;;18.78;59.27;99026.00;4954341;29;20616;-82
2023/09/20 05:21:37;;;;;;;4.85;2.88;;;;;;;18.74;59.19;99021.97;4955033;29;20089;-81
2023/09/20 05:24:04;;;;;;;4.63;2.15;;;;;;;18.72;59.70;99030.13;4955286;29;20490;-80
2023/09/20 05:26:31;;;;;;;7.47;2.35;;;;;;;18.70;59.47;99033.97;4955492;29;20075;-81
2023/09/20 05:28:58;;;;;;;8.40;2.33;;;;;;;18.68;59.45;99023.44;4955418;29;20514;-81
2023/09/20 05:31:26;;;;;;;8.13;2.80;;;;;;;18.67;59.79;99031.59;4953706;29;20047;-81
2023/09/20 05:33:53;;;;;;;7.07;2.50;;;;;;;18.66;59.99;99029.94;4954925;28;20159;-80
2023/09/20 05:36:21;;;;;;;10.32;2.50;;;;;;;18.62;59.80;99024.91;4955421;29;20138;-80
2023/09/20 05:38:51;;;;;;;4.45;2.10;;;;;;;18.61;60.19;99025.06;4954048;29;20054;-80
2023/09/20 05:41:18;;;;;;;4.50;2.42;;;;;;;18.61;60.03;99030.41;4954713;29;20070;-80
2023/09/20 05:43:44;;;;;;;7.05;2.08;;;;;;;18.60;60.28;99031.41;4954809;28;20066;-80
2023/09/20 05:46:16;;;;;;;7.53;2.80;;;;;;;18.59;60.24;99022.59;4955062;29;20047;-80
2023/09/20 05:48:44;;;;;;;6.22;2.63;;;;;;;18.58;60.44;99026.22;4953983;29;20141;-80
2023/09/20 05:51:14;;;;;;;4.70;2.47;;;;;;;18.59;60.35;99027.91;4954907;28;20058;-79
2023/09/20 05:53:44;;;;;;;7.40;2.35;;;;;;;18.59;60.50;99033.25;4954409;29;20043;-79
2023/09/20 05:56:11;;;;;;;9.55;2.58;;;;;;;18.59;60.40;99027.06;4953686;29;20466;-80
2023/09/20 05:58:40;;;;;;;3.70;2.05;;;;;;;18.59;60.31;99038.56;4955189;28;20979;-79
2023/09/20 06:01:10;;;;;;;7.32;1.85;;;;;;;18.59;60.99;99045.72;4953508;29;20051;-79
2023/09/20 06:03:37;;;;;;;8.32;2.40;;;;;;;18.60;60.68;99034.91;4954154;29;20118;-79
2023/09/20 06:06:04;;;;;;;6.55;2.42;;;;;;;18.63;60.88;99039.09;4954586;29;20058;-79
2023/09/20 06:08:35;;;;;;;6.65;2.35;;;;;;;18.66;60.95;99040.59;4954616;28;20519;-82
2023/09/20 06:11:04;;;;;;;7.90;2.40;;;;;;;18.68;60.73;99042.09;4953852;29;20047;-79
2023/09/20 06:13:32;;;;;;;10.63;2.72;;;;;;;18.70;61.17;99034.81;4953814;29;20518;-80
2023/09/20 06:16:06;;;;;;;4.93;2.00;;;;;;;18.72;61.16;99034.63;4954726;29;20122;-80
2023/09/20 06:18:35;;;;;;;5.20;2.30;;;;;;;18.75;60.93;99015.66;4954501;29;20088;-79
2023/09/20 06:21:05;;;;;;;4.72;2.42;;;;;;;18.78;60.88;99025.16;4953240;29;20055;-81
2023/09/20 06:23:32;;;;;;;7.13;2.20;;;;;;;18.78;60.64;99015.34;4953714;29;20055;-80
2023/09/20 06:26:05;;;;;;;5.53;2.22;;;;;;;18.77;61.31;99019.00;4954012;29;20098;-80
2023/09/20 06:28:32;;;;;;;6.43;2.05;;;;;;;18.81;60.72;99017.69;4954035;29;20047;-81
2023/09/20 06:31:00;;;;;;;7.55;2.58;;;;;;;18.82;60.87;99019.34;4954031;29;20047;-80
2023/09/20 06:33:27;;;;;;;3.95;2.40;;;;;;;18.84;60.74;99012.03;4952298;29;20051;-80
2023/09/20 06:35:55;;;;;;;8.60;2.30;;;;;;;18.85;60.82;99013.72;4952019;29;20126;-80
2023/09/20 06:38:23;;;;;;;8.30;2.67;;;;;;;18.86;60.87;99007.38;4952649;29;20139;-79
2023/09/20 06:40:55;;;;;;;5.95;2.40;;;;;;;18.87;61.14;99006.38;4953909;29;20062;-81
2023/09/20 06:43:21;;;;;;;8.30;2.25;;;;;;;18.89;61.04;99008.88;4953617;29;20058;-79
2023/09/20 06:45:52;;;;;;;7.20;2.50;;;;;;;18.91;61.10;99006.06;4953919;29;20047;-79
2023/09/20 06:48:22;;;;;;;5.18;2.35;;;;;;;18.92;61.11;99010.41;4953787;29;20047;-80
2023/09/20 06:50:54;;;;;;;6.38;2.33;;;;;;;18.94;61.02;99011.91;4953840;28;20058;-80
2023/09/20 06:53:23;;;;;;;10.95;2.45;;;;;;;18.95;61.07;99004.75;4953501;29;20484;-80
2023/09/20 06:55:50;;;;;;;8.07;2.28;;;;;;;18.98;61.35;99017.75;4953312;29;20055;-80
2023/09/20 06:58:56;;;;;;;7.20;2.38;;;;;;;18.96;61.56;99017.09;4953747;29;20059;-81
2023/09/20 07:01:25;;;;;;;5.75;2.17;;;;;;;19.04;61.35;99008.28;4952255;29;20114;-80
2023/09/20 07:03:52;;;;;;;7.88;2.80;;;;;;;19.06;61.26;99009.00;4953284;29;20445;-80
2023/09/20 07:06:19;;;;;;;5.88;2.38;;;;;;;19.10;61.39;99011.16;4953670;29;20051;-80
2023/09/20 07:08:45;;;;;;;5.78;2.22;;;;;;;19.13;61.34;99008.19;4953517;29;20051;-79
2023/09/20 07:11:12;;;;;;;5.60;2.47;;;;;;;19.18;61.50;99017.53;4952915;28;20070;-81
2023/09/20 07:13:39;;;;;;;5.18;2.75;;;;;;;19.21;61.61;99014.53;4953223;29;20069;-79
2023/09/20 07:16:06;;;;;;;7.97;2.60;;;;;;;19.25;61.56;99013.22;4953549;29;20530;-80
2023/09/20 07:18:32;;;;;;;5.53;2.28;;;;;;;19.29;61.65;99005.72;4953466;29;20556;-80
2023/09/20 07:20:59;;;;;;;6.82;2.33;;;;;;;19.33;61.38;99001.72;4952890;28;20436;-80
2023/09/20 07:23:29;;;;;;;7.10;2.38;;;;;;;19.38;61.46;99004.72;4953342;29;20134;-79
2023/09/20 07:25:56;;;;;;;5.88;2.67;;;;;;;19.43;61.52;99007.75;4951997;29;20539;-80
2023/09/20 07:28:24;;;;;;;4.88;2.13;;;;;;;19.47;61.51;99002.94;4953380;29;20051;-80
2023/09/20 07:30:51;;;;;;;4.20;2.00;;;;;;;19.52;61.51;99001.41;4951476;29;20047;-79
2023/09/20 07:33:23;;;;;;;6.15;2.40;;;;;;;19.56;61.09;98993.94;4952841;29;20051;-81
2023/09/20 07:36:00;;;;;;;;;;;;;;;19.59;61.42;99006.94;4953648;29;20133;-79
2023/09/20 07:38:29;;;;;;;4.95;2.10;;;;;;;19.69;61.08;99011.31;4951847;29;20363;-81
2023/09/20 07:41:14;;;;;;;7.18;2.20;;;;;;;19.69;61.17;99011.31;4952734;28;20089;-81
2023/09/20 07:43:47;;;;;;;4.88;2.33;;;;;;;19.73;60.94;99007.31;4932520;29;20110;-81
2023/09/20 07:46:14;;;;;;;6.07;2.47;;;;;;;19.75;61.18;99013.31;4932798;29;20135;-80
2023/09/20 07:48:50;;;;;;;6.45;2.33;;;;;;;19.77;61.19;99011.28;4933794;29;20135;-81
2023/09/20 07:51:23;;;;;;;9.63;2.10;;;;;;;19.78;60.78;99011.13;4941341;29;20051;-80
2023/09/20 07:53:53;;;;;;;6.70;2.40;;;;;;;19.78;60.94;99011.13;4933527;29;20087;-80
2023/09/20 07:56:21;;;;;;;5.68;2.30;;;;;;;19.81;61.00;99017.97;4934053;29;20087;-80
2023/09/20 07:58:48;;;;;;;5.50;2.45;;;;;;;19.82;60.68;99016.97;4933748;29;20087;-80
2023/09/20 08:01:21;;;;;;;8.35;2.50;;;;;;;19.84;60.91;99020.31;4936546;29;20058;-79
2023/09/20 08:03:52;;;;;;;6.72;2.63;;;;;;;19.85;61.03;99011.28;4952385;29;20051;-80
2023/09/20 08:06:23;;;;;;;4.50;2.38;;;;;;;19.88;60.99;99016.31;4952518;28;20059;-80
2023/09/20 08:08:50;;;;;;;5.72;2.45;;;;;;;19.92;61.35;99009.63;4952791;29;20047;-83
2023/09/20 08:11:17;;;;;;;7.82;2.60;;;;;;;19.97;61.00;99003.81;4951252;29;20492;-80
2023/09/20 08:13:49;;;;;;;5.72;2.00;;;;;;;20.02;61.25;99012.16;4952299;29;20059;-80
2023/09/20 08:16:16;;;;;;;5.80;2.20;;;;;;;20.05;60.90;99011.00;4952637;29;20436;-80
2023/09/20 08:21:29;;;;;;;6.43;2.45;;;;;;;20.14;61.02;99022.50;4952688;29;20491;-80
2023/09/20 09:00:18;;;;;;;7.30;2.58;;;;;;;20.87;60.37;99017.22;4955812;29;20416;-80
2023/09/20 09:02:45;;;;;;;6.72;2.50;;;;;;;20.96;60.30;99018.00;4955645;29;20052;-79
2023/09/20 09:05:12;;;;;;;4.10;2.30;;;;;;;21.04;60.22;99009.94;4955695;29;20138;-80
2023/09/20 09:07:39;;;;;;;8.02;2.30;;;;;;;21.13;60.72;99016.09;4954241;29;20059;-79
2023/09/20 09:10:07;;;;;;;8.68;2.65;;;;;;;21.21;60.46;99010.72;4954378;29;20090;-80
2023/09/20 09:12:34;;;;;;;6.50;2.63;;;;;;;21.32;60.33;99004.13;4955881;28;20087;-80
2023/09/20 09:15:01;;;;;;;7.05;2.42;;;;;;;21.44;59.90;99007.22;4954367;29;20456;-78
2023/09/20 09:17:28;;;;;;;11.00;3.00;;;;;;;21.53;59.22;99017.88;4955529;28;20051;-79
2023/09/20 09:19:57;;;;;;;8.18;2.47;;;;;;;21.61;59.23;99012.47;4955374;29;20051;-79
2023/09/20 09:22:24;;;;;;;5.65;2.33;;;;;;;21.71;59.41;99004.19;4955390;29;20058;-81
2023/09/20 09:24:53;;;;;;;4.68;2.40;;;;;;;21.82;58.65;99008.31;4955446;29;20416;-80
2023/09/20 09:27:21;;;;;;;5.75;2.63;;;;;;;21.88;58.48;99004.94;4955464;29;20051;-80
2023/09/20 09:29:47;;;;;;;4.68;2.22;;;;;;;21.94;58.10;99004.19;4953477;29;20538;-80
2023/09/20 09:32:14;;;;;;;5.20;2.28;;;;;;;21.99;58.20;99012.53;4954836;29;20048;-80
2023/09/20 09:34:41;;;;;;;5.80;2.30;;;;;;;22.04;57.95;99008.47;4954159;29;20051;-80
2023/09/20 09:37:10;;;;;;;6.38;2.30;;;;;;;22.10;58.22;99007.75;4955255;29;20557;-79
2023/09/20 09:39:39;;;;;;;6.68;2.70;;;;;;;22.16;58.10;99008.88;4954922;28;20494;-79
2023/09/20 09:42:09;;;;;;;7.40;2.40;;;;;;;22.22;58.16;99009.00;4935669;29;20055;-79
2023/09/20 09:44:54;;;;;;;8.02;2.65;;;;;;;22.27;57.93;99011.09;4935608;29;20060;-79
2023/09/20 09:47:24;;;;;;;4.25;2.22;;;;;;;22.39;57.63;99000.78;4934626;29;20510;-80
2023/09/20 09:49:52;;;;;;;4.82;2.30;;;;;;;22.49;57.69;98992.44;4935648;29;20048;-81
2023/09/20 09:52:25;;;;;;;6.65;2.35;;;;;;;22.56;57.04;99000.63;4952435;29;20118;-79
2023/09/20 09:54:52;;;;;;;3.92;1.98;;;;;;;22.65;57.14;99005.72;4954550;29;20485;-79
2023/09/20 09:57:19;;;;;;;7.13;2.08;;;;;;;22.73;56.69;99014.69;5031128;23;20054;-76
2023/09/20 09:59:47;;;;;;;5.68;2.45;;;;;;;22.81;55.81;99011.06;4955264;28;20094;-76
2023/09/20 10:02:18;;;;;;;4.90;2.55;;;;;;;22.86;55.76;99014.88;4954614;28;20085;-77
2023/09/20 10:04:52;;;;;;;6.70;2.20;;;;;;;22.91;55.37;99017.81;4955166;29;20480;-77
2023/09/20 10:07:22;;;;;;;6.63;2.70;;;;;;;22.99;55.52;99010.69;4955302;29;20780;-76
2023/09/20 10:09:52;;;;;;;5.15;2.45;;;;;;;23.04;55.11;99003.75;4954487;29;20059;-77
2023/09/20 10:12:21;;;;;;;5.05;1.90;;;;;;;23.16;55.41;99003.25;4952553;29;20050;-76
2023/09/20 10:14:49;;;;;;;6.82;2.08;;;;;;;23.26;55.55;99006.50;4954174;29;20078;-77
2023/09/20 10:17:20;;;;;;;6.30;2.22;;;;;;;23.37;54.90;99015.09;4954605;29;20051;-76
2023/09/20 10:19:53;;;;;;;4.07;1.90;;;;;;;23.45;52.92;99009.59;4954489;28;20090;-76
2023/09/20 10:22:25;;;;;;;3.92;2.13;;;;;;;23.53;53.61;99004.13;4953870;29;20051;-76
2023/09/20 10:25:01;;;;;;;4.47;2.38;;;;;;;23.56;52.74;99029.75;4954143;29;20062;-76
2023/09/20 10:27:30;;;;;;;5.78;2.53;;;;;;;23.61;53.12;98996.94;4954246;29;20114;-77
2023/09/20 10:30:10;;;;;;;6.18;2.35;;;;;;;23.61;53.20;99007.69;4954096;29;20051;-76
2023/09/20 10:32:53;;;;;;;3.95;2.03;;;;;;;23.64;52.86;99012.69;4953689;29;20043;-78
2023/09/20 10:35:30;;;;;;;7.18;2.10;;;;;;;23.71;53.15;99010.91;4954037;29;20051;-77
2023/09/20 10:37:58;;;;;;;3.00;1.85;;;;;;;23.77;53.29;99015.50;4953956;29;20051;-77
2023/09/20 10:40:57;;;;;;;5.43;2.58;;;;;;;23.79;52.03;99009.94;4954050;29;20051;-77
2023/09/20 10:43:35;;;;;;;7.50;2.70;;;;;;;23.88;52.05;98999.88;4953194;28;20419;-76
2023/09/20 10:46:10;;;;;;;4.78;2.03;;;;;;;23.94;52.20;99012.53;4953980;29;20047;-77
2023/09/20 10:48:43;;;;;;;3.58;2.00;;;;;;;24.03;51.96;99015.94;4953949;29;20094;-76
2023/09/20 10:51:10;;;;;;;2.20;1.73;;;;;;;24.12;52.75;99005.88;4953675;29;20138;-77
2023/09/20 10:53:44;;;;;;;6.10;2.13;;;;;;;24.20;52.06;99011.97;4951812;29;20055;-76
2023/09/20 10:56:32;;;;;;;5.28;2.00;;;;;;;24.32;52.43;98998.81;4952691;28;20066;-78
2023/09/20 10:58:59;;;;;;;3.53;2.20;;;;;;;24.45;52.97;99016.06;4953569;29;20055;-77
2023/09/20 11:01:26;;;;;;;3.28;1.90;;;;;;;24.56;52.78;99010.13;4953633;29;20125;-76
2023/09/20 11:03:53;;;;;;;9.25;2.15;;;;;;;24.69;52.86;99008.53;4952704;29;20078;-76
2023/09/20 11:06:21;;;;;;;4.38;2.13;;;;;;;24.84;52.81;98995.81;4953485;29;20054;-77
2023/09/20 11:08:48;;;;;;;4.40;2.08;;;;;;;25.02;51.71;99001.69;4953313;29;20055;-76
2023/09/20 11:11:18;;;;;;;4.18;1.73;;;;;;;25.19;51.79;99005.66;4953226;29;20107;-76
2023/09/20 11:13:46;;;;;;;5.85;1.98;;;;;;;25.38;52.00;99000.56;4953032;29;20057;-76
2023/09/20 11:16:18;;;;;;;3.78;1.55;;;;;;;25.63;51.36;99003.53;4953038;29;20051;-76
2023/09/20 11:18:45;;;;;;;6.00;2.13;;;;;;;25.99;52.30;98998.81;4953409;28;20047;-76
2023/09/20 11:21:12;;;;;;;6.13;2.03;;;;;;;26.34;50.95;99002.31;4953059;29;20110;-78
2023/09/20 11:23:38;;;;;;;2.97;1.67;;;;;;;26.64;49.86;98997.28;4952750;29;20043;-77
2023/09/20 11:26:05;;;;;;;4.53;1.63;;;;;;;26.90;49.52;98992.81;4952857;29;20106;-76
2023/09/20 11:28:34;;;;;;;4.18;1.90;;;;;;;27.15;49.07;99002.09;4953273;29;20067;-78
2023/09/20 11:31:00;;;;;;;3.95;1.50;;;;;;;27.41;48.86;99000.28;4953146;29;20086;-77
2023/09/20 11:33:28;;;;;;;3.33;1.65;;;;;;;27.68;47.86;98992.03;4952782;29;20082;-76
2023/09/20 11:35:55;;;;;;;2.53;1.40;;;;;;;27.94;47.82;99001.81;4952218;29;20497;-78
2023/09/20 11:38:22;;;;;;;5.57;1.63;;;;;;;28.22;47.72;98988.91;4953192;28;20055;-76
2023/09/20 11:40:49;;;;;;;1.88;1.38;;;;;;;28.50;47.40;98993.00;4952883;29;20059;-77
2023/09/20 11:43:20;;;;;;;4.22;1.50;;;;;;;28.75;44.97;98995.63;4951586;29;20051;-77
2023/09/20 11:45:47;;;;;;;2.47;1.20;;;;;;;29.03;46.29;99001.59;4952460;29;20063;-79
2023/09/20 11:48:27;;;;;;;3.05;1.50;;;;;;;29.32;45.80;98990.16;4953247;28;20298;-77
2023/09/20 11:50:54;;;;;;;5.15;1.42;;;;;;;29.60;45.47;98984.13;4951886;29;20055;-78
2023/09/20 11:53:21;;;;;;;3.00;1.48;;;;;;;29.86;44.33;98989.38;4952966;29;20043;-77
2023/09/20 11:55:48;;;;;;;1.83;1.42;;;;;;;29.98;42.97;98995.63;4952530;29;20074;-75
2023/09/20 11:58:21;;;;;;;6.10;1.60;;;;;;;29.91;41.65;98993.03;4953210;29;20102;-77
2023/09/20 12:00:49;;;;;;;2.72;1.42;;;;;;;29.83;42.61;98992.56;4952829;29;20051;-79
2023/09/20 12:03:16;;;;;;;3.08;1.58;;;;;;;29.62;41.42;98978.47;4952916;28;20105;-77
2023/09/20 12:05:43;;;;;;;1.65;1.20;;;;;;;29.36;41.97;98984.06;4952426;28;20079;-77
2023/09/20 12:08:10;;;;;;;2.60;1.50;;;;;;;29.10;41.88;98980.66;4954388;28;20062;-77
2023/09/20 12:10:37;;;;;;;2.92;1.40;;;;;;;28.86;42.53;98974.28;4956775;29;20051;-76
2023/09/20 12:13:03;;;;;;;2.97;1.50;;;;;;;28.63;43.08;98977.66;4956795;29;20055;-77
2023/09/20 12:15:32;;;;;;;3.03;1.10;;;;;;;28.45;43.37;98979.31;4956427;29;20130;-77
2023/09/20 12:17:59;;;;;;;3.58;1.05;;;;;;;28.33;44.31;98963.81;4956376;29;20057;-78
2023/09/20 12:20:26;;;;;;;3.47;1.33;;;;;;;28.31;44.94;98965.94;4956839;29;20051;-77
2023/09/20 12:22:56;;;;;;;3.28;1.30;;;;;;;28.33;44.24;98973.84;4956178;28;20087;-77